createdAt,value
2023-03-15T00:00:55.778Z,94.05
2023-03-15T00:03:24.340Z,93.16
2023-03-15T00:05:52.395Z,92.98
2023-03-15T00:08:19.695Z,94.17
2023-03-15T00:10:46.855Z,93.24
2023-03-15T00:13:14.890Z,93.32
2023-03-15T00:15:52.131Z,93.46
2023-03-15T00:18:19.852Z,93.71
2023-03-15T00:20:47.159Z,93.75
2023-03-15T00:23:14.226Z,94.14
2023-03-15T00:25:41.075Z,94.27
2023-03-15T00:28:07.529Z,94.91
2023-03-15T00:30:34.115Z,94.40
2023-03-15T00:33:00.516Z,93.87
2023-03-15T00:35:27.052Z,94.58
2023-03-15T00:37:56.803Z,94.28
2023-03-15T00:40:24.286Z,93.75
2023-03-15T00:42:51.174Z,93.33
2023-03-15T00:45:22.067Z,94.12
2023-03-15T00:47:52.527Z,93.50
2023-03-15T00:50:19.813Z,94.04
2023-03-15T00:52:47.289Z,95.26
2023-03-15T00:55:16.992Z,94.83
2023-03-15T00:57:45.375Z,95.14
2023-03-15T01:00:20.360Z,95.17
2023-03-15T01:02:47.425Z,96.34
2023-03-15T01:05:14.839Z,96.35
2023-03-15T01:07:41.310Z,96.88
2023-03-15T01:10:08.279Z,95.25
2023-03-15T01:12:34.923Z,96.52
2023-03-15T01:15:03.288Z,95.18
2023-03-15T01:17:29.735Z,95.72
2023-03-15T01:19:56.373Z,96.28
2023-03-15T01:22:22.815Z,95.86
2023-03-15T01:24:49.321Z,95.98
2023-03-15T01:27:15.787Z,95.70
2023-03-15T01:29:42.293Z,95.52
2023-03-15T01:32:08.914Z,95.97
2023-03-15T01:34:35.988Z,96.75
2023-03-15T01:37:03.069Z,96.60
2023-03-15T01:39:30.741Z,96.82
2023-03-15T01:41:57.191Z,96.45
2023-03-15T01:44:26.816Z,96.51
2023-03-15T01:46:53.441Z,96.98
2023-03-15T01:49:29.304Z,96.99
2023-03-15T01:51:59.534Z,97.36
2023-03-15T01:54:34.364Z,97.03
2023-03-15T01:57:08.525Z,96.56
2023-03-15T01:59:38.612Z,97.80
2023-03-15T02:02:05.428Z,96.91
2023-03-15T02:04:55.107Z,97.48
2023-03-15T02:07:23.221Z,97.42
2023-03-15T02:10:05.505Z,97.27
2023-03-15T02:12:35.026Z,97.10
2023-03-15T02:15:04.935Z,97.85
2023-03-15T02:17:40.169Z,96.73
2023-03-15T02:20:18.470Z,97.77
2023-03-15T02:22:56.113Z,97.48
2023-03-15T02:25:37.983Z,96.54
2023-03-15T02:28:06.420Z,97.99
2023-03-15T02:30:32.988Z,98.09
2023-03-15T02:33:01.381Z,97.44
2023-03-15T02:35:31.599Z,97.18
2023-03-15T02:37:58.927Z,96.87
2023-03-15T02:40:27.876Z,97.60
2023-03-15T02:43:07.146Z,98.80
2023-03-15T02:45:33.825Z,98.35
2023-03-15T02:48:00.807Z,97.88
2023-03-15T02:50:27.338Z,99.11
2023-03-15T02:52:53.807Z,98.55
2023-03-15T02:55:21.771Z,97.61
2023-03-15T02:57:48.799Z,98.35
2023-03-15T03:00:15.560Z,97.54
2023-03-15T03:02:43.845Z,98.17
2023-03-15T03:05:14.251Z,98.44
2023-03-15T03:07:44.117Z,98.16
2023-03-15T03:10:12.597Z,97.68
2023-03-15T03:12:39.123Z,98.71
2023-03-15T03:15:06.233Z,97.97
2023-03-15T03:17:37.267Z,98.00
2023-03-15T03:20:08.014Z,98.64
2023-03-15T03:22:34.849Z,98.67
2023-03-15T03:25:01.263Z,97.09
2023-03-15T03:27:27.686Z,98.73
2023-03-15T03:29:54.184Z,98.01
2023-03-15T03:32:20.793Z,97.38
2023-03-15T03:34:48.379Z,97.79
2023-03-15T03:37:19.198Z,97.50
2023-03-15T03:39:45.783Z,96.83
2023-03-15T03:42:12.389Z,96.25
2023-03-15T03:44:38.841Z,97.43
2023-03-15T03:47:05.504Z,98.15
2023-03-15T03:49:31.950Z,98.36
2023-03-15T03:52:00.307Z,100.00
2023-03-15T03:54:27.786Z,100.00
2023-03-15T03:56:54.399Z,99.97
2023-03-15T03:59:20.874Z,99.99
2023-03-15T04:01:48.240Z,100.00
2023-03-15T04:04:14.826Z,99.41
2023-03-15T04:06:45.917Z,99.37
2023-03-15T04:09:16.410Z,98.58
2023-03-15T04:11:43.648Z,98.93
2023-03-15T04:14:11.435Z,98.21
2023-03-15T04:16:38.241Z,99.25
2023-03-15T04:19:04.890Z,99.04
2023-03-15T04:21:32.031Z,99.69
2023-03-15T04:23:59.587Z,98.89
2023-03-15T04:26:26.787Z,98.94
2023-03-15T04:28:54.749Z,98.55
2023-03-15T04:31:21.862Z,99.74
2023-03-15T04:33:48.307Z,99.54
2023-03-15T04:36:18.853Z,100.00
2023-03-15T04:38:48.587Z,100.00
2023-03-15T04:41:16.065Z,100.00
2023-03-15T04:43:42.889Z,100.00
2023-03-15T04:46:09.855Z,100.00
2023-03-15T04:48:37.274Z,100.00
2023-03-15T04:51:03.844Z,100.00
2023-03-15T04:53:30.307Z,100.00
2023-03-15T04:55:56.716Z,100.00
2023-03-15T04:58:23.169Z,100.00
2023-03-15T05:00:49.739Z,100.00
2023-03-15T05:03:16.227Z,100.00
2023-03-15T05:05:42.807Z,100.00
2023-03-15T05:08:09.239Z,100.00
2023-03-15T05:10:35.663Z,100.00
2023-03-15T05:13:02.138Z,100.00
2023-03-15T05:15:28.709Z,100.00
2023-03-15T05:17:55.861Z,100.00
2023-03-15T05:20:22.973Z,100.00
2023-03-15T05:22:49.482Z,100.00
2023-03-15T05:25:15.962Z,100.00
2023-03-15T05:27:42.431Z,100.00
2023-03-15T05:30:09.565Z,100.00
2023-03-15T05:32:39.453Z,100.00
2023-03-15T05:35:07.485Z,100.00
2023-03-15T05:37:34.047Z,100.00
2023-03-15T05:40:01.383Z,100.00
2023-03-15T05:42:27.851Z,100.00
2023-03-15T05:44:54.412Z,100.00
2023-03-15T05:47:21.211Z,100.00
2023-03-15T05:49:47.716Z,100.00
2023-03-15T05:52:14.608Z,100.00
2023-03-15T05:54:41.238Z,100.00
2023-03-15T05:57:07.817Z,100.00
2023-03-15T05:59:34.550Z,100.00
2023-03-15T06:02:01.187Z,100.00
2023-03-15T06:04:27.733Z,100.00
2023-03-15T06:06:54.224Z,100.00
2023-03-15T06:09:20.702Z,100.00
2023-03-15T06:11:47.169Z,100.00
2023-03-15T06:14:13.688Z,100.00
2023-03-15T06:16:40.206Z,100.00
2023-03-15T06:19:06.706Z,100.00
2023-03-15T06:21:33.251Z,100.00
2023-03-15T06:23:59.693Z,100.00
2023-03-15T06:26:26.210Z,100.00
2023-03-15T06:28:52.686Z,100.00
2023-03-15T06:31:19.195Z,100.00
2023-03-15T06:33:45.683Z,100.00
2023-03-15T06:36:12.533Z,100.00
2023-03-15T06:38:38.993Z,100.00
2023-03-15T06:41:05.429Z,100.00
2023-03-15T06:43:31.902Z,100.00
2023-03-15T06:46:00.001Z,100.00
2023-03-15T06:48:27.694Z,100.00
2023-03-15T06:50:54.274Z,100.00
2023-03-15T06:53:20.994Z,100.00
2023-03-15T06:55:47.698Z,100.00
2023-03-15T06:58:15.382Z,100.00
2023-03-15T07:00:42.201Z,100.00
2023-03-15T07:03:08.728Z,100.00
2023-03-15T07:05:35.179Z,100.00
2023-03-15T07:08:01.617Z,100.00
2023-03-15T07:10:28.117Z,100.00
2023-03-15T07:12:54.827Z,100.00
2023-03-15T07:15:21.312Z,100.00
2023-03-15T07:17:47.724Z,100.00
2023-03-15T07:20:14.222Z,100.00
2023-03-15T07:22:40.735Z,100.00
2023-03-15T07:25:07.610Z,100.00
2023-03-15T07:27:34.266Z,100.00
2023-03-15T07:30:01.162Z,100.00
2023-03-15T07:32:27.682Z,100.00
2023-03-15T07:34:58.168Z,100.00
2023-03-15T07:37:24.686Z,100.00
2023-03-15T07:39:51.172Z,100.00
2023-03-15T07:42:17.650Z,100.00
2023-03-15T07:44:44.239Z,100.00
2023-03-15T07:47:10.948Z,100.00
2023-03-15T07:49:37.460Z,100.00
2023-03-15T07:52:04.131Z,100.00
2023-03-15T07:54:31.934Z,100.00
2023-03-15T07:56:58.472Z,100.00
2023-03-15T07:59:25.036Z,100.00
2023-03-15T08:01:51.525Z,100.00
2023-03-15T08:04:18.006Z,100.00
2023-03-15T08:06:44.476Z,100.00
2023-03-15T08:09:12.057Z,100.00
2023-03-15T08:11:38.562Z,100.00
2023-03-15T08:14:05.754Z,100.00
2023-03-15T08:16:32.209Z,100.00
2023-03-15T08:18:58.869Z,100.00
2023-03-15T08:21:25.304Z,100.00
2023-03-15T08:23:51.752Z,100.00
2023-03-15T08:26:18.209Z,100.00
2023-03-15T08:28:44.698Z,100.00
2023-03-15T08:31:13.855Z,100.00
2023-03-15T08:33:40.644Z,100.00
2023-03-15T08:36:07.323Z,100.00
2023-03-15T08:38:33.978Z,100.00
2023-03-15T08:41:00.475Z,100.00
2023-03-15T08:43:26.986Z,100.00
2023-03-15T08:46:01.829Z,100.00
2023-03-15T08:48:29.328Z,100.00
2023-03-15T08:50:57.241Z,100.00
2023-03-15T08:53:23.666Z,100.00
2023-03-15T08:55:50.180Z,100.00
2023-03-15T08:58:19.355Z,100.00
2023-03-15T09:00:46.237Z,100.00
2023-03-15T09:03:12.771Z,100.00
2023-03-15T09:05:40.276Z,100.00
2023-03-15T09:08:06.731Z,100.00
2023-03-15T09:10:34.458Z,100.00
2023-03-15T09:13:00.907Z,100.00
2023-03-15T09:15:27.384Z,100.00
2023-03-15T09:17:53.857Z,100.00
2023-03-15T09:20:22.808Z,100.00
2023-03-15T09:22:57.543Z,100.00
2023-03-15T09:25:25.162Z,100.00
2023-03-15T09:27:51.892Z,100.00
2023-03-15T09:30:18.805Z,100.00
2023-03-15T09:32:45.915Z,100.00
2023-03-15T09:35:18.366Z,100.00
2023-03-15T09:37:45.797Z,100.00
2023-03-15T09:40:17.767Z,100.00
2023-03-15T09:43:07.297Z,100.00
2023-03-15T09:45:55.593Z,100.00
2023-03-15T09:48:32.974Z,100.00
2023-03-15T09:51:16.214Z,100.00
2023-03-15T09:53:52.905Z,100.00
2023-03-15T09:56:28.454Z,100.00
2023-03-15T09:58:58.689Z,100.00
2023-03-15T10:01:30.083Z,100.00
2023-03-15T10:03:56.659Z,99.44
2023-03-15T10:06:36.557Z,99.47
2023-03-15T10:09:10.891Z,99.54
2023-03-15T10:11:56.165Z,98.72
2023-03-15T10:14:33.728Z,99.78
2023-03-15T10:17:04.713Z,98.28
2023-03-15T10:19:37.222Z,96.98
2023-03-15T10:22:11.163Z,97.02
2023-03-15T10:24:43.487Z,95.55
2023-03-15T10:27:17.589Z,95.01
2023-03-15T10:29:44.276Z,95.63
2023-03-15T10:32:18.114Z,95.34
2023-03-15T10:34:55.975Z,95.26
2023-03-15T10:37:23.813Z,96.66
2023-03-15T10:39:55.207Z,95.57
2023-03-15T10:42:30.874Z,94.39
2023-03-15T10:44:58.400Z,94.32
2023-03-15T10:47:26.076Z,94.39
2023-03-15T10:49:59.406Z,93.75
2023-03-15T10:52:35.471Z,93.70
2023-03-15T10:55:05.714Z,93.38
2023-03-15T10:57:39.169Z,93.92
2023-03-15T11:00:23.980Z,94.59
2023-03-15T11:02:52.432Z,94.12
2023-03-15T11:05:19.972Z,92.83
2023-03-15T11:07:55.347Z,92.03
2023-03-15T11:10:25.147Z,92.54
2023-03-15T11:13:09.497Z,92.76
2023-03-15T11:15:35.930Z,91.72
2023-03-15T11:18:02.485Z,90.51
2023-03-15T11:20:32.003Z,87.95
2023-03-15T11:23:00.029Z,88.85
2023-03-15T11:25:31.377Z,86.24
2023-03-15T11:27:58.139Z,87.04
2023-03-15T11:30:29.149Z,86.17
2023-03-15T11:32:56.142Z,84.79
2023-03-15T11:35:33.108Z,86.03
2023-03-15T11:38:15.691Z,85.28
2023-03-15T11:40:49.026Z,83.96
2023-03-15T11:43:22.144Z,85.96
2023-03-15T11:45:55.755Z,84.93
2023-03-15T11:48:36.406Z,83.94
2023-03-15T11:51:03.080Z,82.66
2023-03-15T11:53:46.193Z,80.44
2023-03-15T11:56:44.296Z,80.15
2023-03-15T11:59:12.927Z,79.75
2023-03-15T12:01:51.695Z,79.65
2023-03-15T12:04:24.342Z,76.62
2023-03-15T12:06:55.747Z,75.83
2023-03-15T12:09:48.296Z,76.57
2023-03-15T12:12:26.808Z,77.81
2023-03-15T12:15:14.836Z,76.74
2023-03-15T12:17:45.646Z,77.87
2023-03-15T12:20:12.046Z,77.28
2023-03-15T12:22:42.243Z,78.02
2023-03-15T12:25:16.022Z,77.68
2023-03-15T12:27:56.677Z,79.53
2023-03-15T12:30:39.515Z,79.77
2023-03-15T12:33:14.132Z,78.37
2023-03-15T12:35:41.359Z,80.25
2023-03-15T12:38:38.496Z,78.99
2023-03-15T12:41:10.005Z,79.27
2023-03-15T12:43:44.844Z,79.47
2023-03-15T12:46:46.796Z,78.40
2023-03-15T12:49:14.711Z,79.46
2023-03-15T12:51:44.261Z,77.94
2023-03-15T12:54:14.190Z,79.09
2023-03-15T12:56:43.844Z,78.31
2023-03-15T12:59:17.124Z,79.15
2023-03-15T13:01:43.585Z,78.17
2023-03-15T13:04:11.482Z,78.72
2023-03-15T13:06:44.598Z,78.13
2023-03-15T13:09:35.969Z,78.43
2023-03-15T13:12:08.682Z,78.43
2023-03-15T13:14:50.155Z,77.47
2023-03-15T13:17:42.970Z,77.79
2023-03-15T13:20:20.606Z,74.95
2023-03-15T13:22:56.458Z,77.59
2023-03-15T13:25:46.591Z,74.66
2023-03-15T13:28:24.566Z,77.05
2023-03-15T13:30:55.609Z,76.74
2023-03-15T13:33:31.908Z,76.42
2023-03-15T13:36:00.987Z,75.20
2023-03-15T13:38:37.603Z,75.59
2023-03-15T13:41:06.838Z,74.68
2023-03-15T13:43:38.484Z,74.11
2023-03-15T13:46:05.665Z,74.71
2023-03-15T13:48:34.631Z,74.90
2023-03-15T13:51:22.778Z,75.05
2023-03-15T13:53:51.829Z,73.75
2023-03-15T13:56:22.561Z,74.24
2023-03-15T13:58:49.272Z,74.45
2023-03-15T14:01:17.051Z,74.52
2023-03-15T14:03:48.178Z,74.35
2023-03-15T14:06:22.537Z,71.76
2023-03-15T14:08:49.731Z,72.97
2023-03-15T14:11:36.994Z,72.21
2023-03-15T14:14:20.095Z,73.08
2023-03-15T14:17:03.549Z,70.05
2023-03-15T14:19:33.620Z,71.57
2023-03-15T14:22:01.939Z,70.78
2023-03-15T14:24:31.401Z,72.61
2023-03-15T14:27:00.365Z,66.39
2023-03-15T14:29:34.970Z,66.69
2023-03-15T14:32:07.029Z,63.14
2023-03-15T14:34:47.192Z,61.42
2023-03-15T14:37:31.016Z,61.78
2023-03-15T14:40:23.211Z,61.57
2023-03-15T14:42:50.819Z,60.52
2023-03-15T14:45:18.441Z,57.07
2023-03-15T14:47:56.648Z,57.96
2023-03-15T14:50:26.015Z,58.68
2023-03-15T14:52:54.082Z,59.68
2023-03-15T14:55:23.188Z,59.24
2023-03-15T14:57:49.750Z,62.78
2023-03-15T15:00:18.162Z,65.70
2023-03-15T15:02:45.476Z,65.87
2023-03-15T15:05:28.054Z,67.16
2023-03-15T15:08:09.646Z,67.57
2023-03-15T15:10:36.885Z,67.75
2023-03-15T15:13:06.905Z,67.66
2023-03-15T15:15:44.054Z,66.25
2023-03-15T15:18:18.108Z,67.56
2023-03-15T15:20:44.594Z,68.36
2023-03-15T15:23:16.216Z,67.42
2023-03-15T15:25:43.622Z,66.79
2023-03-15T15:28:13.891Z,68.35
2023-03-15T15:30:42.353Z,68.17
2023-03-15T15:33:08.847Z,67.61
2023-03-15T15:35:36.950Z,66.62
2023-03-15T15:38:03.542Z,65.34
2023-03-15T15:40:33.435Z,66.20
2023-03-15T15:43:00.699Z,66.79
2023-03-15T15:45:27.177Z,66.39
2023-03-15T15:47:53.623Z,66.67
2023-03-15T15:50:20.836Z,66.00
2023-03-15T15:52:49.923Z,66.68
2023-03-15T15:55:21.961Z,66.25
2023-03-15T15:57:49.810Z,65.71
2023-03-15T16:00:23.912Z,66.55
2023-03-15T16:02:54.725Z,67.48
2023-03-15T16:05:23.776Z,66.36
2023-03-15T16:07:54.837Z,64.45
2023-03-15T16:10:24.703Z,65.90
2023-03-15T16:12:52.283Z,62.65
2023-03-15T16:15:18.913Z,62.15
2023-03-15T16:17:46.229Z,61.96
2023-03-15T16:20:13.946Z,62.68
2023-03-15T16:22:47.058Z,62.68
2023-03-15T16:25:24.084Z,62.77
2023-03-15T16:27:52.547Z,62.67
2023-03-15T16:30:31.019Z,62.63
2023-03-15T16:32:58.034Z,61.87
2023-03-15T16:35:30.585Z,63.10
2023-03-15T16:37:57.977Z,61.86
2023-03-15T16:40:28.529Z,62.52
2023-03-15T16:42:55.731Z,63.84
2023-03-15T16:45:22.663Z,63.06
2023-03-15T16:47:49.231Z,62.45
2023-03-15T16:50:15.827Z,63.14
2023-03-15T16:52:43.696Z,62.41
2023-03-15T16:55:14.091Z,63.12
2023-03-15T16:57:41.128Z,61.94
2023-03-15T17:00:11.978Z,63.64
2023-03-15T17:02:39.620Z,62.73
2023-03-15T17:05:06.264Z,64.47
2023-03-15T17:07:34.756Z,63.04
2023-03-15T17:10:27.372Z,63.97
2023-03-15T17:12:55.396Z,65.22
2023-03-15T17:15:25.125Z,64.17
2023-03-15T17:17:52.606Z,65.16
2023-03-15T17:20:22.197Z,64.67
2023-03-15T17:22:50.045Z,65.67
2023-03-15T17:25:17.177Z,66.74
2023-03-15T17:27:44.437Z,64.58
2023-03-15T17:30:25.930Z,66.45
2023-03-15T17:32:53.955Z,67.00
2023-03-15T17:35:22.104Z,67.21
2023-03-15T17:37:48.735Z,68.08
2023-03-15T17:40:32.099Z,67.57
2023-03-15T17:43:01.287Z,69.25
2023-03-15T17:45:33.020Z,69.83
2023-03-15T17:48:00.611Z,71.27
2023-03-15T17:50:29.567Z,70.38
2023-03-15T17:52:58.114Z,71.14
2023-03-15T17:55:26.488Z,71.82
2023-03-15T17:57:55.480Z,71.25
2023-03-15T18:00:23.773Z,71.60
2023-03-15T18:02:55.517Z,72.00
2023-03-15T18:05:25.089Z,72.78
2023-03-15T18:07:58.663Z,72.63
2023-03-15T18:10:26.705Z,73.53
2023-03-15T18:12:53.734Z,73.25
2023-03-15T18:15:22.454Z,74.29
2023-03-15T18:17:48.994Z,74.39
2023-03-15T18:20:15.966Z,74.44
2023-03-15T18:22:42.500Z,75.63
2023-03-15T18:25:20.179Z,75.20
2023-03-15T18:27:47.079Z,76.57
2023-03-15T18:30:15.718Z,76.60
2023-03-15T18:32:42.399Z,76.10
2023-03-15T18:35:18.982Z,76.88
2023-03-15T18:37:45.728Z,78.15
2023-03-15T18:40:14.057Z,78.12
2023-03-15T18:42:41.252Z,78.34
2023-03-15T18:45:11.026Z,77.53
2023-03-15T18:47:37.486Z,76.73
2023-03-15T18:50:10.646Z,75.97
2023-03-15T18:52:37.527Z,76.96
2023-03-15T18:55:07.593Z,77.57
2023-03-15T18:57:35.240Z,78.46
2023-03-15T19:00:02.081Z,77.91
2023-03-15T19:02:28.711Z,78.04
2023-03-15T19:04:58.003Z,78.46
2023-03-15T19:07:25.714Z,79.00
2023-03-15T19:09:52.453Z,79.12
2023-03-15T19:12:18.891Z,79.45
2023-03-15T19:14:45.409Z,78.84
2023-03-15T19:17:11.944Z,80.10
2023-03-15T19:19:38.469Z,80.15
2023-03-15T19:22:05.005Z,80.76
2023-03-15T19:24:33.143Z,81.40
2023-03-15T19:26:59.806Z,81.01
2023-03-15T19:29:26.247Z,80.53
2023-03-15T19:31:52.698Z,81.75
2023-03-15T19:34:19.228Z,81.65
2023-03-15T19:36:45.679Z,81.08
2023-03-15T19:39:12.293Z,82.44
2023-03-15T19:41:38.823Z,81.45
2023-03-15T19:44:05.310Z,81.31
2023-03-15T19:46:31.812Z,81.77
2023-03-15T19:48:58.402Z,82.61
2023-03-15T19:51:25.554Z,82.55
2023-03-15T19:53:52.208Z,82.92
2023-03-15T19:56:18.656Z,82.48
2023-03-15T19:58:45.156Z,82.32
2023-03-15T20:01:11.645Z,83.41
2023-03-15T20:03:38.158Z,84.38
2023-03-15T20:06:16.884Z,84.50
2023-03-15T20:08:43.390Z,83.32
2023-03-15T20:11:14.744Z,82.83
2023-03-15T20:13:41.239Z,83.12
2023-03-15T20:16:08.186Z,84.93
2023-03-15T20:18:34.675Z,84.90
2023-03-15T20:21:01.145Z,85.06
2023-03-15T20:23:28.546Z,84.94
2023-03-15T20:26:10.704Z,85.00
2023-03-15T20:28:38.680Z,86.34
2023-03-15T20:31:07.418Z,86.45
2023-03-15T20:33:34.089Z,86.20
2023-03-15T20:36:00.631Z,86.17
2023-03-15T20:38:29.179Z,85.35
2023-03-15T20:40:56.327Z,86.39
2023-03-15T20:43:23.412Z,85.58
2023-03-15T20:45:54.410Z,87.01
2023-03-15T20:48:23.440Z,87.49
2023-03-15T20:50:49.954Z,87.98
2023-03-15T20:53:19.558Z,87.80
2023-03-15T20:55:46.468Z,86.98
2023-03-15T20:58:12.978Z,86.48
2023-03-15T21:00:40.997Z,86.90
2023-03-15T21:03:09.144Z,87.86
2023-03-15T21:05:35.701Z,88.96
2023-03-15T21:08:05.004Z,88.63
2023-03-15T21:10:31.456Z,88.55
2023-03-15T21:13:08.814Z,87.68
2023-03-15T21:15:45.722Z,87.47
2023-03-15T21:18:16.984Z,88.15
2023-03-15T21:20:43.868Z,87.63
2023-03-15T21:23:13.012Z,88.75
2023-03-15T21:25:39.476Z,88.65
2023-03-15T21:28:07.015Z,88.19
2023-03-15T21:30:33.512Z,88.92
2023-03-15T21:33:00.191Z,89.10
2023-03-15T21:35:26.896Z,88.03
2023-03-15T21:37:53.377Z,88.87
2023-03-15T21:40:19.886Z,88.37
2023-03-15T21:42:47.794Z,87.81
2023-03-15T21:45:14.659Z,87.75
2023-03-15T21:47:41.698Z,88.34
2023-03-15T21:50:09.013Z,89.29
2023-03-15T21:52:35.483Z,89.74
2023-03-15T21:55:03.336Z,89.83
2023-03-15T21:57:29.811Z,89.73
2023-03-15T21:59:56.260Z,90.05
2023-03-15T22:02:22.687Z,90.03
2023-03-15T22:04:49.168Z,89.10
2023-03-15T22:07:15.724Z,90.40
2023-03-15T22:09:43.236Z,90.34
2023-03-15T22:12:10.362Z,90.29
2023-03-15T22:14:36.964Z,89.69
2023-03-15T22:17:06.171Z,89.83
2023-03-15T22:19:32.751Z,90.59
2023-03-15T22:21:59.267Z,90.57
2023-03-15T22:24:25.739Z,90.09
2023-03-15T22:26:53.096Z,90.03
2023-03-15T22:29:20.024Z,90.08
2023-03-15T22:31:46.465Z,90.80
2023-03-15T22:34:12.906Z,90.91
2023-03-15T22:36:39.336Z,91.10
2023-03-15T22:39:05.903Z,89.99
2023-03-15T22:41:32.385Z,90.03
2023-03-15T22:43:58.862Z,89.96
2023-03-15T22:46:27.033Z,89.05
2023-03-15T22:48:54.022Z,90.12
2023-03-15T22:51:20.447Z,91.76
2023-03-15T22:53:46.914Z,91.58
2023-03-15T22:56:14.367Z,90.67
2023-03-15T22:58:40.909Z,91.45
2023-03-15T23:01:07.551Z,90.67
2023-03-15T23:03:34.220Z,90.43
2023-03-15T23:06:00.727Z,90.35
2023-03-15T23:08:27.472Z,91.30
2023-03-15T23:10:57.921Z,90.73
2023-03-15T23:13:27.783Z,89.67
2023-03-15T23:15:54.344Z,91.20
2023-03-15T23:18:23.171Z,91.39
2023-03-15T23:20:49.624Z,91.26
2023-03-15T23:23:16.099Z,91.84
2023-03-15T23:25:43.120Z,91.15
2023-03-15T23:28:09.652Z,92.76
2023-03-15T23:30:36.540Z,92.44
2023-03-15T23:33:03.683Z,92.10
2023-03-15T23:35:31.439Z,92.20
2023-03-15T23:37:58.032Z,91.20
2023-03-15T23:40:25.801Z,92.66
2023-03-15T23:42:58.948Z,92.47
2023-03-15T23:45:27.692Z,92.38
2023-03-15T23:47:54.132Z,92.78
2023-03-15T23:50:20.717Z,92.70
2023-03-15T23:52:49.024Z,92.99
2023-03-15T23:55:15.502Z,92.50
2023-03-15T23:57:42.088Z,93.48
